sensor_id;sensor_type;location;lat;lon;timestamp;temperature;humidity
67186;HTU21D;54116;53.518;49.398;2023-02-15T00:02:01;-9.78;100.33
67186;HTU21D;54116;53.518;49.398;2023-02-15T00:04:27;-9.84;100.63
67186;HTU21D;54116;53.518;49.398;2023-02-15T00:07:13;-9.86;100.81
67186;HTU21D;54116;53.518;49.398;2023-02-15T00:09:39;-9.84;101.07
67186;HTU21D;54116;53.518;49.398;2023-02-15T00:12:06;-9.83;101.01
67186;HTU21D;54116;53.518;49.398;2023-02-15T00:14:32;-9.71;101.72
67186;HTU21D;54116;53.518;49.398;2023-02-15T00:16:58;-9.74;100.76
67186;HTU21D;54116;53.518;49.398;2023-02-15T00:19:25;-9.72;99.88
67186;HTU21D;54116;53.518;49.398;2023-02-15T00:21:51;-9.74;99.75
67186;HTU21D;54116;53.518;49.398;2023-02-15T00:24:19;-9.75;100.35
67186;HTU21D;54116;53.518;49.398;2023-02-15T00:26:46;-9.72;99.58
67186;HTU21D;54116;53.518;49.398;2023-02-15T00:29:14;-9.74;99.28
67186;HTU21D;54116;53.518;49.398;2023-02-15T00:31:40;-9.77;98.97
67186;HTU21D;54116;53.518;49.398;2023-02-15T00:34:10;-9.78;99.48
67186;HTU21D;54116;53.518;49.398;2023-02-15T00:36:37;-9.82;99.22
67186;HTU21D;54116;53.518;49.398;2023-02-15T00:39:03;-9.83;98.83
67186;HTU21D;54116;53.518;49.398;2023-02-15T00:41:31;-9.81;99.87
67186;HTU21D;54116;53.518;49.398;2023-02-15T00:43:57;-9.83;99.13
67186;HTU21D;54116;53.518;49.398;2023-02-15T00:46:24;-9.85;98.95
67186;HTU21D;54116;53.518;49.398;2023-02-15T00:48:50;-9.91;98.80
67186;HTU21D;54116;53.518;49.398;2023-02-15T00:51:16;-9.86;99.07
67186;HTU21D;54116;53.518;49.398;2023-02-15T00:53:43;-9.87;99.43
67186;HTU21D;54116;53.518;49.398;2023-02-15T00:56:12;-9.87;99.01
67186;HTU21D;54116;53.518;49.398;2023-02-15T00:58:38;-9.90;99.15
67186;HTU21D;54116;53.518;49.398;2023-02-15T01:01:07;-9.89;99.29
67186;HTU21D;54116;53.518;49.398;2023-02-15T01:03:35;-9.87;99.26
67186;HTU21D;54116;53.518;49.398;2023-02-15T01:06:02;-9.87;98.79
67186;HTU21D;54116;53.518;49.398;2023-02-15T01:08:28;-9.86;99.09
67186;HTU21D;54116;53.518;49.398;2023-02-15T01:10:55;-9.90;99.29
67186;HTU21D;54116;53.518;49.398;2023-02-15T01:13:21;-9.93;98.90
67186;HTU21D;54116;53.518;49.398;2023-02-15T01:15:54;-9.97;98.70
67186;HTU21D;54116;53.518;49.398;2023-02-15T01:18:21;-9.96;99.52
67186;HTU21D;54116;53.518;49.398;2023-02-15T01:20:48;-9.99;98.69
67186;HTU21D;54116;53.518;49.398;2023-02-15T01:23:14;-9.99;99.54
67186;HTU21D;54116;53.518;49.398;2023-02-15T01:25:41;-9.98;99.19
67186;HTU21D;54116;53.518;49.398;2023-02-15T01:28:07;-9.94;99.09
67186;HTU21D;54116;53.518;49.398;2023-02-15T01:30:33;-9.88;99.90
67186;HTU21D;54116;53.518;49.398;2023-02-15T01:33:24;-9.86;99.24
67186;HTU21D;54116;53.518;49.398;2023-02-15T01:35:58;-9.91;98.27
67186;HTU21D;54116;53.518;49.398;2023-02-15T01:38:24;-9.92;98.61
67186;HTU21D;54116;53.518;49.398;2023-02-15T01:40:51;-9.96;98.37
67186;HTU21D;54116;53.518;49.398;2023-02-15T01:43:18;-9.99;99.27
67186;HTU21D;54116;53.518;49.398;2023-02-15T01:45:46;-9.97;99.42
67186;HTU21D;54116;53.518;49.398;2023-02-15T01:48:22;-10.00;99.41
67186;HTU21D;54116;53.518;49.398;2023-02-15T01:50:56;-10.04;99.28
67186;HTU21D;54116;53.518;49.398;2023-02-15T01:53:30;-10.05;99.13
67186;HTU21D;54116;53.518;49.398;2023-02-15T01:56:14;-10.08;98.93
67186;HTU21D;54116;53.518;49.398;2023-02-15T01:58:41;-10.07;99.16
67186;HTU21D;54116;53.518;49.398;2023-02-15T02:01:08;-10.06;99.53
67186;HTU21D;54116;53.518;49.398;2023-02-15T02:06:05;-10.03;99.83
67186;HTU21D;54116;53.518;49.398;2023-02-15T02:08:31;-10.00;100.69
67186;HTU21D;54116;53.518;49.398;2023-02-15T02:11:02;-9.94;99.82
67186;HTU21D;54116;53.518;49.398;2023-02-15T02:13:28;-9.96;99.12
67186;HTU21D;54116;53.518;49.398;2023-02-15T02:32:27;-10.01;98.74
67186;HTU21D;54116;53.518;49.398;2023-02-15T02:41:00;-10.01;97.73
67186;HTU21D;54116;53.518;49.398;2023-02-15T02:46:20;-9.97;99.06
67186;HTU21D;54116;53.518;49.398;2023-02-15T02:48:48;-9.98;98.87
67186;HTU21D;54116;53.518;49.398;2023-02-15T02:51:15;-10.02;99.03
67186;HTU21D;54116;53.518;49.398;2023-02-15T02:53:50;-10.04;99.23
67186;HTU21D;54116;53.518;49.398;2023-02-15T02:59:20;-10.05;99.06
67186;HTU21D;54116;53.518;49.398;2023-02-15T03:04:37;-10.04;98.26
67186;HTU21D;54116;53.518;49.398;2023-02-15T03:07:13;-9.98;99.53
67186;HTU21D;54116;53.518;49.398;2023-02-15T03:09:46;-9.97;98.77
67186;HTU21D;54116;53.518;49.398;2023-02-15T03:12:16;-9.93;99.43
67186;HTU21D;54116;53.518;49.398;2023-02-15T03:14:52;-9.90;99.42
67186;HTU21D;54116;53.518;49.398;2023-02-15T03:17:22;-9.93;100.25
67186;HTU21D;54116;53.518;49.398;2023-02-15T03:19:51;-9.87;100.22
67186;HTU21D;54116;53.518;49.398;2023-02-15T03:22:26;-9.92;100.54
67186;HTU21D;54116;53.518;49.398;2023-02-15T03:25:06;-9.89;101.36
67186;HTU21D;54116;53.518;49.398;2023-02-15T03:27:38;-9.91;100.67
67186;HTU21D;54116;53.518;49.398;2023-02-15T03:30:07;-9.98;100.92
67186;HTU21D;54116;53.518;49.398;2023-02-15T03:32:35;-9.97;100.72
67186;HTU21D;54116;53.518;49.398;2023-02-15T03:35:03;-10.03;100.66
67186;HTU21D;54116;53.518;49.398;2023-02-15T03:37:38;-10.06;100.80
67186;HTU21D;54116;53.518;49.398;2023-02-15T03:46:11;-10.05;100.63
67186;HTU21D;54116;53.518;49.398;2023-02-15T03:48:45;-10.04;100.20
67186;HTU21D;54116;53.518;49.398;2023-02-15T03:51:17;-10.07;100.09
67186;HTU21D;54116;53.518;49.398;2023-02-15T03:54:12;-10.07;99.93
67186;HTU21D;54116;53.518;49.398;2023-02-15T03:56:41;-10.06;99.65
67186;HTU21D;54116;53.518;49.398;2023-02-15T03:59:07;-10.04;99.91
67186;HTU21D;54116;53.518;49.398;2023-02-15T04:04:36;-10.07;99.35
67186;HTU21D;54116;53.518;49.398;2023-02-15T04:07:05;-10.05;99.56
67186;HTU21D;54116;53.518;49.398;2023-02-15T04:09:31;-10.04;99.60
67186;HTU21D;54116;53.518;49.398;2023-02-15T04:12:16;-10.04;99.42
67186;HTU21D;54116;53.518;49.398;2023-02-15T04:14:43;-10.04;99.68
67186;HTU21D;54116;53.518;49.398;2023-02-15T04:17:28;-10.04;99.73
67186;HTU21D;54116;53.518;49.398;2023-02-15T04:19:54;-10.03;100.09
67186;HTU21D;54116;53.518;49.398;2023-02-15T04:22:38;-9.98;100.25
67186;HTU21D;54116;53.518;49.398;2023-02-15T04:25:23;-9.99;99.35
67186;HTU21D;54116;53.518;49.398;2023-02-15T04:27:51;-10.02;98.97
67186;HTU21D;54116;53.518;49.398;2023-02-15T04:30:20;-9.99;99.48
67186;HTU21D;54116;53.518;49.398;2023-02-15T04:32:46;-10.01;98.91
67186;HTU21D;54116;53.518;49.398;2023-02-15T04:35:12;-9.97;99.03
67186;HTU21D;54116;53.518;49.398;2023-02-15T04:37:39;-9.91;98.71
67186;HTU21D;54116;53.518;49.398;2023-02-15T04:40:08;-9.87;98.68
67186;HTU21D;54116;53.518;49.398;2023-02-15T04:42:34;-9.82;98.13
67186;HTU21D;54116;53.518;49.398;2023-02-15T04:45:01;-9.77;98.83
67186;HTU21D;54116;53.518;49.398;2023-02-15T04:47:27;-9.75;98.04
67186;HTU21D;54116;53.518;49.398;2023-02-15T04:49:53;-9.76;97.95
67186;HTU21D;54116;53.518;49.398;2023-02-15T04:52:20;-9.73;97.84
67186;HTU21D;54116;53.518;49.398;2023-02-15T04:54:46;-9.67;98.71
67186;HTU21D;54116;53.518;49.398;2023-02-15T04:57:25;-9.61;97.79
67186;HTU21D;54116;53.518;49.398;2023-02-15T04:59:52;-9.61;97.87
67186;HTU21D;54116;53.518;49.398;2023-02-15T05:02:18;-9.57;97.87
67186;HTU21D;54116;53.518;49.398;2023-02-15T05:04:45;-9.48;97.98
67186;HTU21D;54116;53.518;49.398;2023-02-15T05:07:11;-9.57;97.83
67186;HTU21D;54116;53.518;49.398;2023-02-15T05:09:37;-9.59;98.77
67186;HTU21D;54116;53.518;49.398;2023-02-15T05:12:03;-9.61;98.35
67186;HTU21D;54116;53.518;49.398;2023-02-15T05:14:30;-9.61;98.65
67186;HTU21D;54116;53.518;49.398;2023-02-15T05:16:56;-9.58;99.09
67186;HTU21D;54116;53.518;49.398;2023-02-15T05:19:24;-9.44;98.74
67186;HTU21D;54116;53.518;49.398;2023-02-15T05:21:51;-9.38;98.58
67186;HTU21D;54116;53.518;49.398;2023-02-15T05:24:17;-9.39;97.79
67186;HTU21D;54116;53.518;49.398;2023-02-15T05:27:02;-9.39;98.39
67186;HTU21D;54116;53.518;49.398;2023-02-15T05:29:47;-9.38;97.90
67186;HTU21D;54116;53.518;49.398;2023-02-15T05:32:14;-9.27;98.56
67186;HTU21D;54116;53.518;49.398;2023-02-15T05:34:40;-9.12;98.40
67186;HTU21D;54116;53.518;49.398;2023-02-15T05:37:06;-8.92;98.44
67186;HTU21D;54116;53.518;49.398;2023-02-15T05:39:33;-8.88;96.72
67186;HTU21D;54116;53.518;49.398;2023-02-15T05:42:00;-8.79;96.73
67186;HTU21D;54116;53.518;49.398;2023-02-15T05:44:26;-8.62;96.30
67186;HTU21D;54116;53.518;49.398;2023-02-15T05:46:52;-8.51;95.47
67186;HTU21D;54116;53.518;49.398;2023-02-15T05:49:18;-8.41;94.37
67186;HTU21D;54116;53.518;49.398;2023-02-15T05:51:44;-8.38;92.30
67186;HTU21D;54116;53.518;49.398;2023-02-15T05:54:10;-8.31;91.38
67186;HTU21D;54116;53.518;49.398;2023-02-15T05:56:37;-8.23;90.69
67186;HTU21D;54116;53.518;49.398;2023-02-15T05:59:05;-8.29;89.39
67186;HTU21D;54116;53.518;49.398;2023-02-15T06:01:31;-8.27;88.47
67186;HTU21D;54116;53.518;49.398;2023-02-15T06:03:57;-8.29;88.52
67186;HTU21D;54116;53.518;49.398;2023-02-15T06:06:24;-8.30;89.03
67186;HTU21D;54116;53.518;49.398;2023-02-15T06:08:50;-8.16;89.09
67186;HTU21D;54116;53.518;49.398;2023-02-15T06:11:16;-8.22;89.14
67186;HTU21D;54116;53.518;49.398;2023-02-15T06:13:42;-8.05;88.60
67186;HTU21D;54116;53.518;49.398;2023-02-15T06:16:08;-8.09;87.03
67186;HTU21D;54116;53.518;49.398;2023-02-15T06:18:34;-8.12;87.94
67186;HTU21D;54116;53.518;49.398;2023-02-15T06:21:00;-8.10;87.22
67186;HTU21D;54116;53.518;49.398;2023-02-15T06:23:26;-8.06;87.07
67186;HTU21D;54116;53.518;49.398;2023-02-15T06:25:53;-7.84;87.18
67186;HTU21D;54116;53.518;49.398;2023-02-15T06:28:19;-7.64;85.71
67186;HTU21D;54116;53.518;49.398;2023-02-15T06:30:46;-7.56;84.89
67186;HTU21D;54116;53.518;49.398;2023-02-15T06:33:13;-7.56;83.39
67186;HTU21D;54116;53.518;49.398;2023-02-15T06:35:39;-7.63;84.66
67186;HTU21D;54116;53.518;49.398;2023-02-15T06:38:05;-7.47;84.35
67186;HTU21D;54116;53.518;49.398;2023-02-15T06:40:31;-7.47;84.03
67186;HTU21D;54116;53.518;49.398;2023-02-15T06:42:57;-7.17;83.49
67186;HTU21D;54116;53.518;49.398;2023-02-15T06:45:23;-7.12;82.42
67186;HTU21D;54116;53.518;49.398;2023-02-15T06:47:50;-7.09;82.66
67186;HTU21D;54116;53.518;49.398;2023-02-15T06:50:17;-7.04;82.85
67186;HTU21D;54116;53.518;49.398;2023-02-15T06:52:44;-7.00;82.42
67186;HTU21D;54116;53.518;49.398;2023-02-15T06:55:10;-6.97;82.25
67186;HTU21D;54116;53.518;49.398;2023-02-15T06:57:36;-7.07;82.52
67186;HTU21D;54116;53.518;49.398;2023-02-15T07:00:03;-7.09;83.52
67186;HTU21D;54116;53.518;49.398;2023-02-15T07:02:30;-6.85;83.46
67186;HTU21D;54116;53.518;49.398;2023-02-15T07:04:56;-6.79;82.20
67186;HTU21D;54116;53.518;49.398;2023-02-15T07:07:22;-6.72;82.46
67186;HTU21D;54116;53.518;49.398;2023-02-15T07:09:49;-6.49;82.23
67186;HTU21D;54116;53.518;49.398;2023-02-15T07:12:15;-6.52;81.43
67186;HTU21D;54116;53.518;49.398;2023-02-15T07:15:00;-6.51;82.03
67186;HTU21D;54116;53.518;49.398;2023-02-15T07:17:26;-6.42;81.73
67186;HTU21D;54116;53.518;49.398;2023-02-15T07:19:54;-6.17;80.36
67186;HTU21D;54116;53.518;49.398;2023-02-15T07:22:21;-6.13;78.83
67186;HTU21D;54116;53.518;49.398;2023-02-15T07:24:47;-6.35;79.08
67186;HTU21D;54116;53.518;49.398;2023-02-15T07:27:20;-6.37;80.52
67186;HTU21D;54116;53.518;49.398;2023-02-15T07:29:47;-6.36;80.32
67186;HTU21D;54116;53.518;49.398;2023-02-15T07:32:13;-6.46;80.69
67186;HTU21D;54116;53.518;49.398;2023-02-15T07:34:40;-6.29;80.72
67186;HTU21D;54116;53.518;49.398;2023-02-15T07:37:07;-6.31;79.91
67186;HTU21D;54116;53.518;49.398;2023-02-15T07:39:33;-6.29;80.31
67186;HTU21D;54116;53.518;49.398;2023-02-15T07:42:00;-6.34;80.06
67186;HTU21D;54116;53.518;49.398;2023-02-15T07:44:28;-6.35;82.65
67186;HTU21D;54116;53.518;49.398;2023-02-15T07:46:54;-5.94;83.14
67186;HTU21D;54116;53.518;49.398;2023-02-15T07:49:20;-5.61;81.72
67186;HTU21D;54116;53.518;49.398;2023-02-15T07:51:47;-5.48;79.65
67186;HTU21D;54116;53.518;49.398;2023-02-15T07:54:14;-5.74;80.59
67186;HTU21D;54116;53.518;49.398;2023-02-15T07:56:41;-6.07;82.63
67186;HTU21D;54116;53.518;49.398;2023-02-15T07:59:07;-6.02;82.65
67186;HTU21D;54116;53.518;49.398;2023-02-15T08:01:34;-6.13;82.13
67186;HTU21D;54116;53.518;49.398;2023-02-15T08:04:02;-6.48;83.78
67186;HTU21D;54116;53.518;49.398;2023-02-15T08:06:31;-6.16;83.61
67186;HTU21D;54116;53.518;49.398;2023-02-15T08:08:57;-6.20;82.47
67186;HTU21D;54116;53.518;49.398;2023-02-15T08:11:29;-6.21;83.71
67186;HTU21D;54116;53.518;49.398;2023-02-15T08:14:18;-6.51;84.53
67186;HTU21D;54116;53.518;49.398;2023-02-15T08:16:49;-6.39;85.08
67186;HTU21D;54116;53.518;49.398;2023-02-15T08:21:55;-6.78;84.83
67186;HTU21D;54116;53.518;49.398;2023-02-15T08:24:24;-6.89;85.89
67186;HTU21D;54116;53.518;49.398;2023-02-15T08:26:51;-6.70;86.83
67186;HTU21D;54116;53.518;49.398;2023-02-15T08:29:20;-6.55;85.79
67186;HTU21D;54116;53.518;49.398;2023-02-15T08:31:48;-6.51;84.68
67186;HTU21D;54116;53.518;49.398;2023-02-15T08:34:16;-6.53;85.82
67186;HTU21D;54116;53.518;49.398;2023-02-15T08:36:43;-6.49;84.37
67186;HTU21D;54116;53.518;49.398;2023-02-15T08:39:11;-6.59;85.55
67186;HTU21D;54116;53.518;49.398;2023-02-15T08:41:38;-6.82;85.77
67186;HTU21D;54116;53.518;49.398;2023-02-15T08:44:07;-6.77;86.71
67186;HTU21D;54116;53.518;49.398;2023-02-15T08:46:37;-6.65;86.96
67186;HTU21D;54116;53.518;49.398;2023-02-15T08:49:03;-6.55;86.15
67186;HTU21D;54116;53.518;49.398;2023-02-15T08:51:31;-6.57;86.01
67186;HTU21D;54116;53.518;49.398;2023-02-15T08:54:00;-6.18;85.88
67186;HTU21D;54116;53.518;49.398;2023-02-15T08:56:32;-6.23;83.60
67186;HTU21D;54116;53.518;49.398;2023-02-15T08:58:58;-6.41;85.22
67186;HTU21D;54116;53.518;49.398;2023-02-15T09:01:30;-6.48;85.24
67186;HTU21D;54116;53.518;49.398;2023-02-15T09:03:59;-6.38;85.00
67186;HTU21D;54116;53.518;49.398;2023-02-15T09:06:26;-6.33;84.99
67186;HTU21D;54116;53.518;49.398;2023-02-15T09:08:53;-6.24;84.86
67186;HTU21D;54116;53.518;49.398;2023-02-15T09:11:27;-6.42;83.40
67186;HTU21D;54116;53.518;49.398;2023-02-15T09:14:04;-6.72;85.91
67186;HTU21D;54116;53.518;49.398;2023-02-15T09:16:33;-6.72;85.13
67186;HTU21D;54116;53.518;49.398;2023-02-15T09:19:00;-6.76;85.93
67186;HTU21D;54116;53.518;49.398;2023-02-15T09:21:33;-6.74;84.45
67186;HTU21D;54116;53.518;49.398;2023-02-15T09:24:03;-6.78;86.03
67186;HTU21D;54116;53.518;49.398;2023-02-15T09:26:32;-6.50;85.45
67186;HTU21D;54116;53.518;49.398;2023-02-15T09:29:00;-6.15;84.77
67186;HTU21D;54116;53.518;49.398;2023-02-15T09:31:38;-6.23;82.84
67186;HTU21D;54116;53.518;49.398;2023-02-15T09:34:05;-6.58;85.38
67186;HTU21D;54116;53.518;49.398;2023-02-15T09:36:33;-6.23;86.88
67186;HTU21D;54116;53.518;49.398;2023-02-15T09:39:26;-5.93;83.99
67186;HTU21D;54116;53.518;49.398;2023-02-15T09:42:11;-5.89;81.86
67186;HTU21D;54116;53.518;49.398;2023-02-15T09:45:09;-6.17;83.16
67186;HTU21D;54116;53.518;49.398;2023-02-15T09:47:58;-6.44;86.18
67186;HTU21D;54116;53.518;49.398;2023-02-15T09:53:32;-6.22;84.28
67186;HTU21D;54116;53.518;49.398;2023-02-15T10:04:22;-6.14;83.84
67186;HTU21D;54116;53.518;49.398;2023-02-15T10:07:25;-5.87;82.14
67186;HTU21D;54116;53.518;49.398;2023-02-15T10:10:38;-5.76;81.88
67186;HTU21D;54116;53.518;49.398;2023-02-15T10:13:17;-6.13;82.01
67186;HTU21D;54116;53.518;49.398;2023-02-15T10:26:46;-6.08;82.09
67186;HTU21D;54116;53.518;49.398;2023-02-15T10:29:38;-6.28;83.61
67186;HTU21D;54116;53.518;49.398;2023-02-15T10:32:23;-6.35;84.32
67186;HTU21D;54116;53.518;49.398;2023-02-15T10:40:25;-5.94;82.38
67186;HTU21D;54116;53.518;49.398;2023-02-15T10:46:01;-5.96;81.78
67186;HTU21D;54116;53.518;49.398;2023-02-15T11:00:27;-5.82;83.00
67186;HTU21D;54116;53.518;49.398;2023-02-15T11:05:50;-5.87;82.58
67186;HTU21D;54116;53.518;49.398;2023-02-15T11:08:24;-5.83;81.80
67186;HTU21D;54116;53.518;49.398;2023-02-15T11:11:00;-5.92;83.34
67186;HTU21D;54116;53.518;49.398;2023-02-15T11:13:37;-5.89;83.76
67186;HTU21D;54116;53.518;49.398;2023-02-15T11:16:39;-5.88;84.23
67186;HTU21D;54116;53.518;49.398;2023-02-15T11:19:22;-5.72;83.61
67186;HTU21D;54116;53.518;49.398;2023-02-15T11:22:01;-5.52;82.31
67186;HTU21D;54116;53.518;49.398;2023-02-15T11:24:32;-5.99;82.71
67186;HTU21D;54116;53.518;49.398;2023-02-15T11:27:27;-6.14;84.90
67186;HTU21D;54116;53.518;49.398;2023-02-15T11:32:43;-6.15;86.05
67186;HTU21D;54116;53.518;49.398;2023-02-15T11:40:20;-6.75;88.77
67186;HTU21D;54116;53.518;49.398;2023-02-15T11:42:48;-6.75;88.91
67186;HTU21D;54116;53.518;49.398;2023-02-15T11:45:34;-6.80;90.61
67186;HTU21D;54116;53.518;49.398;2023-02-15T11:48:01;-6.61;88.87
67186;HTU21D;54116;53.518;49.398;2023-02-15T11:50:32;-6.31;89.50
67186;HTU21D;54116;53.518;49.398;2023-02-15T11:53:04;-6.17;86.41
67186;HTU21D;54116;53.518;49.398;2023-02-15T11:55:32;-6.23;87.40
67186;HTU21D;54116;53.518;49.398;2023-02-15T12:02:54;-6.70;88.59
67186;HTU21D;54116;53.518;49.398;2023-02-15T12:05:24;-6.48;88.19
67186;HTU21D;54116;53.518;49.398;2023-02-15T12:08:01;-6.52;86.74
67186;HTU21D;54116;53.518;49.398;2023-02-15T12:13:18;-6.82;88.22
67186;HTU21D;54116;53.518;49.398;2023-02-15T12:15:47;-6.85;88.44
67186;HTU21D;54116;53.518;49.398;2023-02-15T12:18:42;-6.90;89.04
67186;HTU21D;54116;53.518;49.398;2023-02-15T12:21:15;-6.88;88.72
67186;HTU21D;54116;53.518;49.398;2023-02-15T12:23:47;-6.89;88.73
67186;HTU21D;54116;53.518;49.398;2023-02-15T12:26:14;-7.01;88.82
67186;HTU21D;54116;53.518;49.398;2023-02-15T12:28:42;-7.16;88.92
67186;HTU21D;54116;53.518;49.398;2023-02-15T12:31:40;-7.47;90.31
67186;HTU21D;54116;53.518;49.398;2023-02-15T12:34:16;-7.41;91.27
67186;HTU21D;54116;53.518;49.398;2023-02-15T12:36:50;-7.40;91.31
67186;HTU21D;54116;53.518;49.398;2023-02-15T12:39:28;-7.56;91.55
67186;HTU21D;54116;53.518;49.398;2023-02-15T12:42:15;-7.64;92.53
67186;HTU21D;54116;53.518;49.398;2023-02-15T12:44:57;-7.69;92.69
67186;HTU21D;54116;53.518;49.398;2023-02-15T12:47:24;-7.78;93.37
67186;HTU21D;54116;53.518;49.398;2023-02-15T12:50:21;-7.95;93.43
67186;HTU21D;54116;53.518;49.398;2023-02-15T12:52:50;-8.00;93.76
67186;HTU21D;54116;53.518;49.398;2023-02-15T12:55:27;-8.01;94.26
67186;HTU21D;54116;53.518;49.398;2023-02-15T12:58:16;-8.13;94.72
67186;HTU21D;54116;53.518;49.398;2023-02-15T13:00:44;-8.13;95.01
67186;HTU21D;54116;53.518;49.398;2023-02-15T13:03:20;-8.12;94.82
67186;HTU21D;54116;53.518;49.398;2023-02-15T13:05:51;-8.08;94.70
67186;HTU21D;54116;53.518;49.398;2023-02-15T13:08:21;-8.14;94.38
67186;HTU21D;54116;53.518;49.398;2023-02-15T13:11:06;-8.19;94.90
67186;HTU21D;54116;53.518;49.398;2023-02-15T13:13:56;-8.19;95.44
67186;HTU21D;54116;53.518;49.398;2023-02-15T13:16:30;-8.24;94.78
67186;HTU21D;54116;53.518;49.398;2023-02-15T13:18:56;-8.35;94.52
67186;HTU21D;54116;53.518;49.398;2023-02-15T13:21:35;-8.42;95.93
67186;HTU21D;54116;53.518;49.398;2023-02-15T13:24:07;-8.48;96.17
67186;HTU21D;54116;53.518;49.398;2023-02-15T13:26:36;-8.51;97.13
67186;HTU21D;54116;53.518;49.398;2023-02-15T13:29:10;-8.59;97.32
67186;HTU21D;54116;53.518;49.398;2023-02-15T13:31:39;-8.65;98.25
67186;HTU21D;54116;53.518;49.398;2023-02-15T13:34:15;-8.66;98.61
67186;HTU21D;54116;53.518;49.398;2023-02-15T13:39:54;-8.71;99.83
67186;HTU21D;54116;53.518;49.398;2023-02-15T13:42:35;-8.73;100.24
67186;HTU21D;54116;53.518;49.398;2023-02-15T13:56:02;-8.80;102.87
67186;HTU21D;54116;53.518;49.398;2023-02-15T14:06:41;-8.83;104.07
67186;HTU21D;54116;53.518;49.398;2023-02-15T14:14:42;-8.95;104.76
67186;HTU21D;54116;53.518;49.398;2023-02-15T14:23:07;-9.04;106.18
67186;HTU21D;54116;53.518;49.398;2023-02-15T14:25:47;-9.04;106.48
67186;HTU21D;54116;53.518;49.398;2023-02-15T14:31:09;-9.09;106.83
67186;HTU21D;54116;53.518;49.398;2023-02-15T14:33:43;-9.12;106.57
67186;HTU21D;54116;53.518;49.398;2023-02-15T14:36:16;-9.15;106.95
67186;HTU21D;54116;53.518;49.398;2023-02-15T14:45:29;-9.14;107.37
67186;HTU21D;54116;53.518;49.398;2023-02-15T14:48:25;-9.14;107.33
67186;HTU21D;54116;53.518;49.398;2023-02-15T14:50:55;-9.17;107.57
67186;HTU21D;54116;53.518;49.398;2023-02-15T14:56:17;-9.24;107.45
67186;HTU21D;54116;53.518;49.398;2023-02-15T15:01:32;-9.30;107.17
67186;HTU21D;54116;53.518;49.398;2023-02-15T15:04:06;-9.32;107.31
67186;HTU21D;54116;53.518;49.398;2023-02-15T15:06:37;-9.32;107.37
67186;HTU21D;54116;53.518;49.398;2023-02-15T15:11:46;-9.44;106.98
67186;HTU21D;54116;53.518;49.398;2023-02-15T15:17:00;-9.48;107.40
67186;HTU21D;54116;53.518;49.398;2023-02-15T15:22:37;-9.56;107.30
67186;HTU21D;54116;53.518;49.398;2023-02-15T15:25:39;-9.56;107.24
67186;HTU21D;54116;53.518;49.398;2023-02-15T15:27:57;-9.56;107.51
67186;HTU21D;54116;53.518;49.398;2023-02-15T15:44:09;-9.54;107.36
67186;HTU21D;54116;53.518;49.398;2023-02-15T15:49:19;-9.58;107.11
67186;HTU21D;54116;53.518;49.398;2023-02-15T15:51:46;-9.57;107.04
67186;HTU21D;54116;53.518;49.398;2023-02-15T15:54:23;-9.57;107.11
67186;HTU21D;54116;53.518;49.398;2023-02-15T15:56:57;-9.58;107.04
67186;HTU21D;54116;53.518;49.398;2023-02-15T15:59:32;-9.57;107.16
67186;HTU21D;54116;53.518;49.398;2023-02-15T16:02:06;-9.61;107.13
67186;HTU21D;54116;53.518;49.398;2023-02-15T16:04:35;-9.61;107.23
67186;HTU21D;54116;53.518;49.398;2023-02-15T16:10:04;-9.59;107.30
67186;HTU21D;54116;53.518;49.398;2023-02-15T16:12:34;-9.61;106.87
67186;HTU21D;54116;53.518;49.398;2023-02-15T16:15:18;-9.60;106.92
67186;HTU21D;54116;53.518;49.398;2023-02-15T16:17:49;-9.61;106.93
67186;HTU21D;54116;53.518;49.398;2023-02-15T16:20:20;-9.62;106.79
67186;HTU21D;54116;53.518;49.398;2023-02-15T16:22:51;-9.63;106.75
67186;HTU21D;54116;53.518;49.398;2023-02-15T16:28:10;-9.67;106.71
67186;HTU21D;54116;53.518;49.398;2023-02-15T16:30:37;-9.64;106.77
67186;HTU21D;54116;53.518;49.398;2023-02-15T16:33:10;-9.62;106.82
67186;HTU21D;54116;53.518;49.398;2023-02-15T16:35:39;-9.59;106.94
67186;HTU21D;54116;53.518;49.398;2023-02-15T16:38:08;-9.57;106.66
67186;HTU21D;54116;53.518;49.398;2023-02-15T16:40:52;-9.56;106.57
67186;HTU21D;54116;53.518;49.398;2023-02-15T16:43:23;-9.56;106.61
67186;HTU21D;54116;53.518;49.398;2023-02-15T16:45:51;-9.53;107.01
67186;HTU21D;54116;53.518;49.398;2023-02-15T16:48:21;-9.55;106.88
67186;HTU21D;54116;53.518;49.398;2023-02-15T16:50:51;-9.56;106.75
67186;HTU21D;54116;53.518;49.398;2023-02-15T16:53:23;-9.55;106.92
67186;HTU21D;54116;53.518;49.398;2023-02-15T16:55:54;-9.55;106.85
67186;HTU21D;54116;53.518;49.398;2023-02-15T16:58:27;-9.55;106.64
67186;HTU21D;54116;53.518;49.398;2023-02-15T17:00:58;-9.54;106.68
67186;HTU21D;54116;53.518;49.398;2023-02-15T17:03:26;-9.55;106.86
67186;HTU21D;54116;53.518;49.398;2023-02-15T17:05:57;-9.57;106.88
67186;HTU21D;54116;53.518;49.398;2023-02-15T17:11:05;-9.62;107.23
67186;HTU21D;54116;53.518;49.398;2023-02-15T17:13:35;-9.62;107.33
67186;HTU21D;54116;53.518;49.398;2023-02-15T17:18:33;-9.60;107.19
67186;HTU21D;54116;53.518;49.398;2023-02-15T17:21:31;-9.62;107.27
67186;HTU21D;54116;53.518;49.398;2023-02-15T17:23:59;-9.69;106.69
67186;HTU21D;54116;53.518;49.398;2023-02-15T17:26:30;-9.76;107.08
67186;HTU21D;54116;53.518;49.398;2023-02-15T17:29:01;-9.78;107.05
67186;HTU21D;54116;53.518;49.398;2023-02-15T17:31:31;-9.82;107.25
67186;HTU21D;54116;53.518;49.398;2023-02-15T17:33:59;-9.83;107.49
67186;HTU21D;54116;53.518;49.398;2023-02-15T17:36:27;-9.86;107.53
67186;HTU21D;54116;53.518;49.398;2023-02-15T17:41:31;-9.92;107.49
67186;HTU21D;54116;53.518;49.398;2023-02-15T17:44:01;-9.97;107.56
67186;HTU21D;54116;53.518;49.398;2023-02-15T17:46:33;-10.01;107.54
67186;HTU21D;54116;53.518;49.398;2023-02-15T17:49:00;-10.07;107.64
67186;HTU21D;54116;53.518;49.398;2023-02-15T17:51:26;-10.10;107.84
67186;HTU21D;54116;53.518;49.398;2023-02-15T17:53:53;-10.11;108.08
67186;HTU21D;54116;53.518;49.398;2023-02-15T17:56:37;-10.07;108.21
67186;HTU21D;54116;53.518;49.398;2023-02-15T17:59:05;-10.04;108.38
67186;HTU21D;54116;53.518;49.398;2023-02-15T18:01:33;-10.03;108.35
67186;HTU21D;54116;53.518;49.398;2023-02-15T18:04:19;-10.00;108.44
67186;HTU21D;54116;53.518;49.398;2023-02-15T18:07:04;-9.97;108.56
67186;HTU21D;54116;53.518;49.398;2023-02-15T18:09:48;-9.96;108.72
67186;HTU21D;54116;53.518;49.398;2023-02-15T18:12:35;-9.97;108.49
67186;HTU21D;54116;53.518;49.398;2023-02-15T18:15:05;-9.94;108.56
67186;HTU21D;54116;53.518;49.398;2023-02-15T18:17:38;-9.92;108.46
67186;HTU21D;54116;53.518;49.398;2023-02-15T18:20:19;-9.91;108.48
67186;HTU21D;54116;53.518;49.398;2023-02-15T18:22:46;-9.93;108.46
67186;HTU21D;54116;53.518;49.398;2023-02-15T18:25:17;-9.90;108.62
67186;HTU21D;54116;53.518;49.398;2023-02-15T18:27:43;-9.91;108.43
67186;HTU21D;54116;53.518;49.398;2023-02-15T18:30:14;-9.91;108.56
67186;HTU21D;54116;53.518;49.398;2023-02-15T18:32:41;-9.87;108.87
67186;HTU21D;54116;53.518;49.398;2023-02-15T18:35:14;-9.86;108.68